Time;durP1;ratioP1;P1;durP2;ratioP2;P2;SDS_P1;SDS_P2;PMS_P1;PMS_P2;Temp;Humidity;BMP_temperature;BMP_pressure;BME280_temperature;BME280_humidity;BME280_pressure;Samples;Min_cycle;Max_cycle;Signal;HPM_P1;HPM_P2
2022/07/18 00:00:32;;;;;;;5.60;5.03;;;18.20;95.80;;;;;;4976514;28;20441;-76
2022/07/18 00:03:00;;;;;;;7.00;5.90;;;18.20;95.90;;;;;;4994513;28;20487;-77
2022/07/18 00:05:28;;;;;;;7.17;5.37;;;18.20;96.00;;;;;;4977734;28;20795;-76
2022/07/18 00:07:57;;;;;;;9.40;6.07;;;18.10;95.90;;;;;;4977114;28;21112;-76
2022/07/18 00:10:25;;;;;;;5.30;4.80;;;18.10;96.00;;;;;;4976965;28;20453;-76
2022/07/18 00:12:54;;;;;;;6.10;5.17;;;18.00;96.00;;;;;;4976823;28;20460;-77
2022/07/18 00:15:22;;;;;;;5.50;5.00;;;18.00;96.10;;;;;;5000968;28;20452;-76
2022/07/18 00:17:51;;;;;;;6.23;5.30;;;18.00;96.10;;;;;;4996422;28;20541;-76
2022/07/18 00:20:19;;;;;;;5.90;5.30;;;18.00;96.20;;;;;;4996303;28;20452;-76
2022/07/18 00:22:47;;;;;;;6.83;5.70;;;17.90;96.10;;;;;;5013956;28;20458;-76
2022/07/18 00:25:15;;;;;;;6.90;6.23;;;17.90;96.20;;;;;;5013760;28;20530;-76
2022/07/18 00:27:43;;;;;;;5.97;5.37;;;17.90;96.20;;;;;;5014817;28;20440;-76
2022/07/18 00:30:13;;;;;;;6.37;5.43;;;17.90;96.30;;;;;;5014014;28;20509;-76
2022/07/18 00:32:41;;;;;;;5.20;4.70;;;17.80;96.30;;;;;;4996017;28;20460;-76
2022/07/18 00:35:10;;;;;;;10.07;5.27;;;17.80;96.30;;;;;;4996108;28;20506;-76
2022/07/18 00:37:38;;;;;;;5.57;5.00;;;17.80;96.40;;;;;;5013931;28;20438;-76
2022/07/18 00:40:08;;;;;;;9.43;5.20;;;17.80;96.40;;;;;;5013696;28;21007;-76
2022/07/18 00:42:36;;;;;;;5.93;5.10;;;17.70;96.40;;;;;;5013602;28;20555;-76
2022/07/18 00:45:05;;;;;;;6.47;5.03;;;17.70;96.50;;;;;;5013400;28;20957;-76
2022/07/18 00:47:34;;;;;;;4.87;4.37;;;17.70;96.50;;;;;;5013594;28;20435;-76
2022/07/18 00:50:05;;;;;;;5.13;4.63;;;17.60;96.50;;;;;;5013538;28;20948;-76
2022/07/18 00:52:33;;;;;;;5.03;4.13;;;17.60;96.50;;;;;;4995768;28;21107;-76
2022/07/18 00:55:01;;;;;;;4.97;4.27;;;17.60;96.80;;;;;;5013388;28;20452;-76
2022/07/18 00:57:30;;;;;;;5.40;4.43;;;17.50;96.60;;;;;;5013396;28;20448;-76
2022/07/18 01:02:45;;;;;;;4.90;4.20;;;17.50;96.60;;;;;;4995650;28;20465;-76
2022/07/18 01:05:13;;;;;;;5.53;4.63;;;17.40;96.60;;;;;;5013518;28;20440;-76
2022/07/18 01:07:42;;;;;;;5.73;5.10;;;17.40;96.60;;;;;;4995699;28;20866;-76
2022/07/18 01:10:10;;;;;;;6.63;5.30;;;17.40;96.70;;;;;;5013363;28;20956;-76
2022/07/18 01:12:38;;;;;;;4.97;4.43;;;17.40;96.70;;;;;;5015319;28;20819;-76
2022/07/18 01:15:08;;;;;;;6.07;5.30;;;17.30;96.70;;;;;;4999963;28;20789;-76
2022/07/18 01:17:36;;;;;;;5.60;4.90;;;17.30;96.80;;;;;;5017502;28;20444;-76
2022/07/18 01:20:07;;;;;;;5.23;4.53;;;17.30;96.80;;;;;;5017534;28;20816;-76
2022/07/18 01:22:37;;;;;;;7.23;5.33;;;17.20;96.80;;;;;;5017095;28;20434;-76
2022/07/18 01:25:06;;;;;;;5.03;4.53;;;17.20;96.90;;;;;;5017459;28;20436;-76
2022/07/18 01:27:36;;;;;;;5.20;4.70;;;17.20;97.00;;;;;;4999396;28;20475;-76
2022/07/18 01:30:06;;;;;;;6.60;5.73;;;17.20;97.00;;;;;;4999439;28;20480;-76
2022/07/18 01:32:34;;;;;;;5.80;4.90;;;17.10;97.00;;;;;;5016931;28;20468;-76
2022/07/18 01:35:02;;;;;;;5.50;4.63;;;17.10;97.10;;;;;;4999337;28;20443;-76
2022/07/18 01:37:30;;;;;;;5.20;4.60;;;17.10;97.10;;;;;;4999286;28;20417;-76
2022/07/18 01:40:00;;;;;;;6.00;4.60;;;17.00;97.10;;;;;;4999264;28;20422;-76
2022/07/18 01:42:28;;;;;;;5.10;4.60;;;17.00;97.20;;;;;;5016843;28;20458;-76
2022/07/18 01:44:56;;;;;;;4.70;3.70;;;17.00;97.20;;;;;;5016774;28;20539;-76
2022/07/18 01:47:24;;;;;;;5.80;4.70;;;17.00;97.30;;;;;;4998945;28;20486;-76
2022/07/18 01:49:52;;;;;;;4.97;4.47;;;16.90;97.30;;;;;;5016604;28;20423;-76
2022/07/18 01:52:20;;;;;;;5.53;4.67;;;16.90;97.30;;;;;;4998973;28;20464;-76
2022/07/18 01:54:48;;;;;;;5.20;4.70;;;16.90;97.30;;;;;;4998988;28;20494;-76
2022/07/18 01:57:18;;;;;;;5.97;5.07;;;16.90;97.40;;;;;;4998879;28;20450;-76
2022/07/18 01:59:46;;;;;;;5.37;4.70;;;16.80;97.40;;;;;;5016482;28;20494;-76
2022/07/18 02:02:14;;;;;;;5.60;5.10;;;16.80;97.40;;;;;;5016664;28;20460;-76
2022/07/18 02:05:00;;;;;;;6.30;5.70;;;16.80;97.40;;;;;;5016627;28;20462;-76
2022/07/18 02:07:30;;;;;;;4.57;4.10;;;16.80;97.50;;;;;;4998763;28;20529;-76
2022/07/18 02:09:59;;;;;;;5.10;4.60;;;16.70;97.50;;;;;;4998808;28;20432;-76
2022/07/18 02:12:29;;;;;;;7.70;5.40;;;16.70;97.50;;;;;;4998696;28;20475;-76
2022/07/18 02:14:57;;;;;;;4.50;3.93;;;16.70;97.60;;;;;;5016186;28;20436;-76
2022/07/18 02:17:25;;;;;;;5.20;4.30;;;16.60;97.60;;;;;;4998472;28;20448;-76
2022/07/18 02:19:53;;;;;;;5.73;5.23;;;16.60;97.60;;;;;;5016401;28;20460;-76
2022/07/18 02:22:21;;;;;;;5.43;4.93;;;16.60;97.70;;;;;;4998397;28;20464;-76
2022/07/18 02:24:49;;;;;;;5.80;4.77;;;16.60;97.80;;;;;;5015355;28;20440;-76
2022/07/18 02:27:18;;;;;;;6.57;4.90;;;16.60;97.80;;;;;;4998205;28;20453;-76
2022/07/18 02:29:48;;;;;;;5.30;4.47;;;16.50;97.80;;;;;;4998504;28;20466;-76
2022/07/18 02:32:16;;;;;;;4.53;4.13;;;16.50;97.80;;;;;;4998137;28;20482;-76
2022/07/18 02:34:45;;;;;;;5.17;4.27;;;16.50;97.90;;;;;;5016273;28;20447;-76
2022/07/18 02:37:13;;;;;;;5.60;4.17;;;16.40;97.90;;;;;;4998154;28;20511;-76
2022/07/18 02:39:41;;;;;;;5.20;4.70;;;16.50;98.00;;;;;;4997996;28;20415;-76
2022/07/18 02:42:09;;;;;;;5.30;4.70;;;16.40;98.00;;;;;;4997945;28;20467;-76
2022/07/18 02:44:37;;;;;;;7.30;5.03;;;16.40;98.00;;;;;;5015450;28;20837;-76
2022/07/18 02:47:07;;;;;;;5.70;5.20;;;16.40;98.00;;;;;;5015486;28;20541;-76
2022/07/18 02:49:35;;;;;;;7.27;5.77;;;16.40;98.10;;;;;;5015557;28;20494;-76
2022/07/18 02:52:06;;;;;;;5.03;4.53;;;16.30;98.00;;;;;;4997848;28;20476;-76
2022/07/18 02:54:35;;;;;;;6.47;4.73;;;16.30;98.00;;;;;;4997898;28;20982;-76
2022/07/18 02:57:04;;;;;;;5.33;4.83;;;16.30;98.10;;;;;;5015372;28;20440;-76
2022/07/18 02:59:32;;;;;;;4.40;4.00;;;16.30;98.20;;;;;;5015662;28;20447;-76
2022/07/18 03:02:00;;;;;;;5.20;4.70;;;16.20;98.10;;;;;;5015151;28;20468;-76
2022/07/18 03:04:30;;;;;;;4.90;4.40;;;16.20;98.40;;;;;;5015335;28;20415;-76
2022/07/18 03:06:58;;;;;;;5.50;5.00;;;16.20;98.20;;;;;;4997624;28;20836;-76
2022/07/18 03:09:27;;;;;;;8.03;5.43;;;16.20;98.20;;;;;;5015758;28;20432;-76
2022/07/18 03:11:56;;;;;;;6.57;5.10;;;16.20;98.30;;;;;;4997561;28;20582;-76
2022/07/18 03:14:24;;;;;;;6.30;5.30;;;16.10;98.30;;;;;;4997563;28;20447;-76
2022/07/18 03:16:53;;;;;;;5.40;4.90;;;16.10;98.40;;;;;;4997553;28;20444;-76
2022/07/18 03:19:21;;;;;;;4.80;4.33;;;16.10;98.40;;;;;;4997401;28;20530;-76
2022/07/18 03:21:52;;;;;;;5.53;4.37;;;16.10;98.50;;;;;;5015987;28;20539;-76
2022/07/18 03:24:20;;;;;;;4.97;4.53;;;16.10;98.60;;;;;;5014983;28;20475;-77
2022/07/18 03:26:48;;;;;;;4.73;4.23;;;16.10;98.70;;;;;;5015157;28;20467;-76
2022/07/18 03:29:16;;;;;;;4.70;4.30;;;16.00;98.70;;;;;;4997230;28;20419;-77
2022/07/18 03:31:44;;;;;;;7.60;4.50;;;16.00;98.70;;;;;;5014806;28;20529;-76
2022/07/18 03:34:12;;;;;;;4.77;4.13;;;16.00;98.80;;;;;;5014783;28;20418;-76
2022/07/18 03:36:41;;;;;;;5.00;4.23;;;16.00;98.80;;;;;;4996244;28;20434;-76
2022/07/18 03:39:12;;;;;;;4.77;4.37;;;16.00;98.90;;;;;;4997269;28;20520;-76
2022/07/18 03:41:40;;;;;;;5.67;4.83;;;16.00;98.90;;;;;;4998228;28;20467;-77
2022/07/18 03:44:09;;;;;;;4.70;4.23;;;16.00;99.00;;;;;;5015560;28;20443;-77
2022/07/18 03:46:37;;;;;;;5.60;4.63;;;16.00;99.00;;;;;;4998442;28;20430;-77
2022/07/18 03:49:05;;;;;;;5.93;5.07;;;16.00;99.10;;;;;;4996937;28;20427;-77
2022/07/18 03:51:33;;;;;;;6.93;5.27;;;16.00;99.40;;;;;;5014443;28;20441;-76
2022/07/18 03:54:01;;;;;;;6.67;5.17;;;16.00;99.20;;;;;;5014467;28;20407;-76
2022/07/18 03:56:31;;;;;;;7.43;6.63;;;16.00;99.50;;;;;;5014953;28;20487;-77
2022/07/18 03:59:00;;;;;;;5.20;4.70;;;16.00;99.30;;;;;;4996744;28;20438;-76
2022/07/18 04:01:28;;;;;;;7.00;4.73;;;16.00;99.30;;;;;;5014187;28;20466;-76
2022/07/18 04:03:56;;;;;;;5.20;4.67;;;16.00;99.60;;;;;;4996690;28;20465;-76
2022/07/18 04:06:24;;;;;;;5.83;5.23;;;16.00;99.40;;;;;;5014125;28;20467;-76
2022/07/18 04:08:53;;;;;;;5.20;4.50;;;16.00;99.40;;;;;;5014036;28;20450;-77
2022/07/18 04:11:23;;;;;;;5.70;4.07;;;16.00;99.50;;;;;;5014041;28;21034;-77
2022/07/18 04:13:54;;;;;;;4.93;4.53;;;16.00;99.50;;;;;;5014420;28;20458;-76
2022/07/18 04:16:23;;;;;;;4.93;4.17;;;16.00;99.50;;;;;;4996445;28;20410;-76
2022/07/18 04:18:51;;;;;;;4.90;4.20;;;16.00;99.50;;;;;;5013968;28;20435;-76
2022/07/18 04:21:20;;;;;;;6.10;3.80;;;16.00;99.80;;;;;;4996176;28;20963;-76
2022/07/18 04:23:48;;;;;;;4.93;4.43;;;16.00;99.60;;;;;;4996131;28;20456;-76
2022/07/18 04:26:16;;;;;;;5.47;5.00;;;16.10;99.70;;;;;;5013735;28;20501;-76
2022/07/18 04:28:44;;;;;;;10.83;9.50;;;16.10;99.80;;;;;;4996070;28;20446;-76
2022/07/18 04:31:14;;;;;;;6.63;5.73;;;16.10;99.80;;;;;;5013639;28;20533;-76
2022/07/18 04:33:42;;;;;;;8.07;7.00;;;16.10;99.80;;;;;;4996136;28;20836;-76
2022/07/18 04:36:10;;;;;;;7.20;5.93;;;16.10;99.90;;;;;;5014032;28;20546;-76
2022/07/18 04:38:39;;;;;;;5.40;4.50;;;16.10;99.90;;;;;;5014273;28;20411;-76
2022/07/18 04:41:07;;;;;;;6.33;5.67;;;16.20;99.90;;;;;;5013559;28;21055;-76
2022/07/18 04:43:36;;;;;;;8.87;7.47;;;16.20;99.90;;;;;;4995835;28;20473;-76
2022/07/18 04:46:04;;;;;;;5.00;4.50;;;16.20;99.90;;;;;;5013430;28;20428;-76
2022/07/18 04:48:34;;;;;;;6.20;5.40;;;16.30;99.90;;;;;;5013098;28;20926;-76
2022/07/18 04:51:02;;;;;;;5.20;4.63;;;16.30;99.90;;;;;;5013421;28;20438;-77
2022/07/18 04:53:33;;;;;;;5.37;4.50;;;16.30;99.90;;;;;;4995922;28;20423;-77
2022/07/18 04:56:01;;;;;;;9.30;5.20;;;16.30;99.90;;;;;;4996034;28;20426;-76
2022/07/18 04:58:29;;;;;;;6.53;4.40;;;16.40;99.90;;;;;;5013530;28;20443;-76
2022/07/18 05:00:57;;;;;;;5.30;4.60;;;16.40;99.90;;;;;;4995707;28;20471;-76
2022/07/18 05:03:25;;;;;;;7.57;4.53;;;16.40;99.90;;;;;;5013435;28;20422;-76
2022/07/18 05:05:55;;;;;;;7.27;4.50;;;16.50;99.90;;;;;;4995911;28;20418;-77
2022/07/18 05:08:23;;;;;;;4.93;4.33;;;16.50;99.90;;;;;;4995758;28;20439;-77
2022/07/18 05:10:51;;;;;;;6.37;4.50;;;16.60;99.90;;;;;;5013580;28;20452;-77
2022/07/18 05:13:19;;;;;;;4.53;4.10;;;16.60;99.90;;;;;;5013833;28;20411;-77
2022/07/18 05:15:48;;;;;;;7.53;4.90;;;16.60;99.90;;;;;;5013525;28;20444;-77
2022/07/18 05:18:16;;;;;;;7.03;4.70;;;16.70;99.90;;;;;;4995908;28;20448;-77
2022/07/18 05:20:44;;;;;;;6.47;4.87;;;16.80;99.90;;;;;;4995768;28;20879;-77
2022/07/18 05:23:16;;;;;;;4.83;4.33;;;16.80;99.90;;;;;;4995754;28;20455;-78
2022/07/18 05:25:44;;;;;;;5.40;3.90;;;16.90;99.90;;;;;;4995716;28;20450;-78
2022/07/18 05:28:12;;;;;;;7.20;4.20;;;17.00;99.90;;;;;;5013189;28;21006;-77
2022/07/18 05:30:40;;;;;;;5.13;3.77;;;17.00;99.90;;;;;;4996134;28;20941;-77
2022/07/18 05:33:08;;;;;;;4.40;3.37;;;17.10;99.90;;;;;;5013613;28;20747;-77
2022/07/18 05:35:37;;;;;;;4.13;3.73;;;17.20;99.90;;;;;;5013282;28;20907;-77
2022/07/18 05:38:05;;;;;;;4.80;3.90;;;17.30;99.90;;;;;;5013408;28;20948;-77
2022/07/18 05:40:35;;;;;;;4.10;3.30;;;17.30;99.90;;;;;;4995595;28;20468;-77
2022/07/18 05:43:03;;;;;;;7.70;5.80;;;17.40;99.90;;;;;;4995456;28;20534;-77
2022/07/18 05:45:32;;;;;;;5.77;4.00;;;17.50;99.90;;;;;;5013411;28;20447;-77
2022/07/18 05:48:00;;;;;;;6.17;3.60;;;17.50;99.90;;;;;;5012908;28;20471;-77
2022/07/18 05:50:28;;;;;;;4.80;3.57;;;17.60;99.90;;;;;;5013318;28;20447;-77
2022/07/18 05:52:56;;;;;;;5.47;3.27;;;17.70;99.90;;;;;;5012896;28;21023;-77
2022/07/18 05:55:27;;;;;;;3.83;3.07;;;17.80;99.90;;;;;;4995465;28;20436;-77
2022/07/18 05:57:57;;;;;;;4.47;3.87;;;17.90;99.90;;;;;;5013225;28;20451;-77
2022/07/18 06:00:25;;;;;;;8.30;3.73;;;17.90;99.90;;;;;;5015990;28;20418;-76
2022/07/18 06:02:53;;;;;;;5.53;4.10;;;18.00;99.90;;;;;;5016355;28;20459;-76
2022/07/18 06:05:22;;;;;;;5.93;4.07;;;18.10;99.90;;;;;;4998821;28;20876;-76
2022/07/18 06:07:53;;;;;;;4.67;3.03;;;18.20;99.90;;;;;;4998784;28;20435;-76
2022/07/18 06:10:22;;;;;;;4.77;3.50;;;18.20;99.90;;;;;;4998772;28;20447;-76
2022/07/18 06:12:51;;;;;;;7.60;3.77;;;18.30;99.90;;;;;;4998703;28;20468;-77
2022/07/18 06:15:20;;;;;;;5.50;3.63;;;18.40;99.90;;;;;;5002403;28;20433;-77
2022/07/18 06:17:48;;;;;;;7.93;3.90;;;18.50;99.90;;;;;;4969068;28;20965;-76
2022/07/18 06:20:17;;;;;;;5.50;3.50;;;18.50;99.90;;;;;;4985525;28;20436;-76
2022/07/18 06:22:45;;;;;;;6.07;3.10;;;18.60;99.90;;;;;;4968928;28;20473;-76
2022/07/18 06:25:14;;;;;;;5.30;3.47;;;18.80;99.90;;;;;;4986381;28;20515;-77
2022/07/18 06:27:43;;;;;;;4.20;3.27;;;19.00;99.90;;;;;;4968659;28;20449;-76
2022/07/18 06:30:12;;;;;;;5.20;3.47;;;19.30;99.90;;;;;;4985457;28;20493;-76
2022/07/18 06:32:42;;;;;;;7.37;3.47;;;19.60;99.90;;;;;;4968342;28;20504;-77
2022/07/18 06:35:11;;;;;;;4.83;3.63;;;19.90;99.90;;;;;;4982203;28;20445;-76
2022/07/18 06:37:39;;;;;;;4.77;3.17;;;20.30;99.90;;;;;;4963495;28;20962;-77
2022/07/18 06:40:08;;;;;;;5.80;2.57;;;20.50;99.90;;;;;;4968537;28;20941;-78
2022/07/18 06:42:36;;;;;;;4.97;3.10;;;20.90;99.80;;;;;;4969372;28;20483;-77
2022/07/18 06:45:07;;;;;;;8.33;3.30;;;21.10;99.70;;;;;;4991284;28;20464;-77
2022/07/18 06:47:42;;;;;;;7.30;2.83;;;21.40;99.50;;;;;;4996373;28;20448;-77
2022/07/18 06:50:12;;;;;;;4.90;2.87;;;21.70;99.30;;;;;;4996077;28;20460;-77
2022/07/18 06:52:42;;;;;;;6.70;3.13;;;21.90;99.00;;;;;;4978743;28;20511;-77
2022/07/18 06:55:11;;;;;;;8.50;2.90;;;22.10;98.80;;;;;;4996595;28;20463;-76
2022/07/18 06:57:40;;;;;;;3.97;2.73;;;22.30;98.40;;;;;;4995953;28;20436;-77
2022/07/18 07:00:10;;;;;;;4.17;2.50;;;22.50;98.20;;;;;;4996233;28;20527;-77
2022/07/18 07:02:45;;;;;;;6.10;3.07;;;22.70;98.00;;;;;;4996008;28;21024;-77
2022/07/18 07:05:14;;;;;;;4.60;2.97;;;22.90;97.70;;;;;;4978457;28;20451;-77
2022/07/18 07:07:43;;;;;;;5.80;2.93;;;23.10;97.80;;;;;;4978333;28;20452;-77
2022/07/18 07:10:16;;;;;;;9.40;3.50;;;23.20;97.20;;;;;;4977990;28;20483;-77
2022/07/18 07:12:47;;;;;;;6.37;2.70;;;23.40;97.10;;;;;;4995748;28;20825;-77
2022/07/18 07:15:16;;;;;;;5.30;2.90;;;23.50;96.90;;;;;;4978282;28;20457;-77
2022/07/18 07:17:46;;;;;;;4.60;2.60;;;23.60;96.70;;;;;;4995603;28;20440;-77
2022/07/18 07:20:14;;;;;;;5.53;2.63;;;23.70;96.50;;;;;;4978709;28;20539;-77
2022/07/18 07:22:44;;;;;;;3.70;2.37;;;23.90;96.50;;;;;;4995687;28;20475;-77
2022/07/18 07:25:14;;;;;;;4.77;2.17;;;24.10;96.20;;;;;;4995541;28;20514;-77
2022/07/18 07:27:43;;;;;;;6.50;3.00;;;24.30;96.00;;;;;;4996103;28;20443;-78
2022/07/18 07:30:12;;;;;;;4.17;2.57;;;24.40;95.90;;;;;;4977875;28;20497;-77
2022/07/18 07:32:43;;;;;;;3.50;2.40;;;24.70;95.80;;;;;;4995409;28;20456;-78
2022/07/18 07:35:14;;;;;;;4.83;2.40;;;24.90;95.60;;;;;;4977899;28;20437;-77
2022/07/18 07:37:46;;;;;;;5.73;3.80;;;25.20;95.40;;;;;;4983807;28;20942;-77
2022/07/18 07:40:15;;;;;;;5.60;3.70;;;25.30;95.20;;;;;;4976136;28;20430;-77
2022/07/18 07:42:44;;;;;;;3.73;2.20;;;25.30;95.00;;;;;;4975627;28;20985;-77
2022/07/18 07:45:13;;;;;;;4.57;1.80;;;25.40;94.60;;;;;;4958259;28;20511;-77
2022/07/18 07:47:42;;;;;;;3.43;2.10;;;25.40;94.30;;;;;;4965299;28;20445;-77
2022/07/18 07:50:13;;;;;;;2.53;2.00;;;25.40;93.90;;;;;;4963290;28;20503;-77
2022/07/18 07:52:41;;;;;;;5.53;2.10;;;25.40;93.50;;;;;;4983246;28;20461;-77
2022/07/18 07:55:10;;;;;;;10.50;7.67;;;25.50;93.30;;;;;;4966378;28;20446;-78
2022/07/18 07:57:38;;;;;;;4.30;2.90;;;25.50;93.10;;;;;;4983010;28;20536;-76
2022/07/18 08:00:09;;;;;;;3.80;2.10;;;25.60;92.80;;;;;;4984083;28;20440;-77
2022/07/18 08:02:52;;;;;;;9.20;2.57;;;25.60;92.50;;;;;;4975675;28;21006;-77
2022/07/18 08:05:29;;;;;;;4.27;2.40;;;25.70;92.30;;;;;;4963943;28;20821;-77
2022/07/18 08:07:58;;;;;;;3.63;2.20;;;25.90;92.30;;;;;;4967700;28;20450;-78
2022/07/18 08:10:27;;;;;;;4.20;2.33;;;26.00;92.30;;;;;;4966125;28;20472;-78
2022/07/18 08:12:55;;;;;;;4.13;2.60;;;26.10;92.20;;;;;;4982165;28;20458;-77
2022/07/18 08:15:24;;;;;;;3.63;1.80;;;26.20;92.10;;;;;;4988703;28;20532;-77
2022/07/18 08:17:53;;;;;;;7.60;2.90;;;26.30;91.90;;;;;;4976985;28;21028;-77
2022/07/18 08:20:22;;;;;;;3.00;2.00;;;26.40;91.60;;;;;;4977009;28;20448;-77
2022/07/18 08:22:57;;;;;;;4.40;1.80;;;26.50;91.40;;;;;;4993813;28;20560;-77
2022/07/18 08:25:25;;;;;;;5.03;2.10;;;26.50;90.90;;;;;;4977012;28;20440;-77
2022/07/18 08:27:54;;;;;;;4.47;1.90;;;26.50;90.70;;;;;;4994269;28;20880;-77
2022/07/18 08:30:22;;;;;;;6.37;1.87;;;26.60;90.50;;;;;;4994307;28;20480;-76
2022/07/18 08:32:51;;;;;;;3.43;1.67;;;26.70;90.20;;;;;;4977020;28;20832;-75
2022/07/18 08:35:21;;;;;;;3.60;1.83;;;26.70;89.90;;;;;;4994310;28;20456;-75
2022/07/18 08:37:50;;;;;;;2.40;1.80;;;26.80;89.30;;;;;;4982041;28;20790;-77
2022/07/18 08:40:20;;;;;;;2.83;2.03;;;26.80;89.10;;;;;;4985274;28;20449;-75
2022/07/18 08:42:51;;;;;;;4.73;2.03;;;26.90;88.80;;;;;;4986740;28;20472;-76
2022/07/18 08:45:42;;;;;;;3.10;1.90;;;26.90;88.10;;;;;;4995985;28;20515;-76
2022/07/18 08:48:11;;;;;;;3.50;1.60;;;27.00;87.60;;;;;;4994410;28;20413;-77
2022/07/18 08:50:39;;;;;;;3.50;1.93;;;27.00;87.00;;;;;;4976435;28;20472;-76
2022/07/18 08:53:07;;;;;;;4.13;2.00;;;27.10;86.80;;;;;;4976598;28;20456;-76
2022/07/18 08:55:37;;;;;;;2.93;2.00;;;27.10;86.40;;;;;;4993998;28;20444;-77
2022/07/18 08:58:05;;;;;;;3.50;1.77;;;27.20;86.10;;;;;;4976457;28;20456;-76
2022/07/18 09:00:53;;;;;;;4.27;1.90;;;27.20;86.00;;;;;;4994194;28;20838;-75
2022/07/18 09:03:21;;;;;;;3.13;2.23;;;27.30;85.90;;;;;;4993909;28;20448;-75
2022/07/18 09:06:03;;;;;;;5.53;4.27;;;27.40;85.80;;;;;;4993879;28;20453;-75
2022/07/18 09:08:32;;;;;;;3.03;2.37;;;27.50;85.50;;;;;;4976648;28;20854;-75
2022/07/18 09:11:03;;;;;;;3.37;2.53;;;27.50;85.00;;;;;;4994042;28;20476;-75
2022/07/18 09:13:38;;;;;;;4.27;2.70;;;27.60;84.30;;;;;;4976439;28;20465;-75
2022/07/18 09:16:08;;;;;;;2.30;1.80;;;27.60;83.90;;;;;;4994127;28;20519;-75
2022/07/18 09:18:39;;;;;;;4.60;2.23;;;27.70;84.00;;;;;;4976360;28;20958;-75
2022/07/18 09:21:09;;;;;;;2.67;2.20;;;27.70;84.10;;;;;;4976256;28;20460;-76
2022/07/18 09:23:39;;;;;;;4.17;2.63;;;27.80;84.00;;;;;;4993989;28;20437;-75
2022/07/18 09:26:10;;;;;;;2.90;2.50;;;27.90;84.30;;;;;;4993688;28;20491;-75
2022/07/18 09:28:49;;;;;;;3.80;2.70;;;28.10;83.30;;;;;;4993888;28;20424;-75
2022/07/18 09:31:38;;;;;;;4.50;3.30;;;28.20;82.80;;;;;;4976217;28;20921;-76
2022/07/18 09:34:06;;;;;;;4.00;3.23;;;28.20;82.20;;;;;;4994709;28;20445;-76
2022/07/18 09:36:36;;;;;;;4.20;3.30;;;28.20;81.50;;;;;;4997520;28;20447;-76
2022/07/18 09:39:19;;;;;;;5.07;2.70;;;28.30;81.00;;;;;;4997452;28;20421;-75
2022/07/18 09:41:49;;;;;;;4.87;3.17;;;28.40;80.80;;;;;;4979830;28;20524;-76
2022/07/18 09:44:19;;;;;;;5.03;3.13;;;28.40;80.90;;;;;;4997248;28;20456;-76
2022/07/18 09:47:00;;;;;;;4.77;3.00;;;28.50;80.50;;;;;;4979860;28;20445;-75
2022/07/18 09:49:30;;;;;;;4.27;3.30;;;28.60;80.10;;;;;;4997499;28;20437;-75
2022/07/18 09:52:06;;;;;;;6.43;4.80;;;28.60;79.40;;;;;;4979444;28;21032;-75
2022/07/18 09:54:39;;;;;;;4.80;3.90;;;28.70;78.90;;;;;;4979715;28;20432;-75
2022/07/18 09:57:10;;;;;;;7.30;3.17;;;28.70;78.30;;;;;;4997037;28;20441;-75
2022/07/18 09:59:38;;;;;;;4.97;3.70;;;28.80;78.40;;;;;;4979543;28;20444;-75
2022/07/18 10:02:13;;;;;;;5.70;3.93;;;28.80;78.70;;;;;;4979483;28;20571;-75
2022/07/18 10:04:41;;;;;;;5.83;5.20;;;28.90;78.10;;;;;;4996962;28;20502;-75
2022/07/18 10:07:10;;;;;;;4.57;3.70;;;28.90;77.30;;;;;;4979342;28;20460;-75
2022/07/18 10:09:40;;;;;;;5.40;4.17;;;28.90;76.70;;;;;;4997398;28;20436;-78
2022/07/18 10:12:10;;;;;;;5.20;4.30;;;29.00;76.40;;;;;;4997776;28;20485;-78
2022/07/18 10:14:40;;;;;;;8.00;7.20;;;29.00;76.00;;;;;;4980304;28;20507;-78
2022/07/18 10:17:08;;;;;;;6.07;5.47;;;28.90;75.60;;;;;;4979955;28;20519;-78
2022/07/18 10:19:36;;;;;;;5.10;4.10;;;28.90;75.10;;;;;;4997701;28;20532;-78
2022/07/18 10:22:06;;;;;;;5.53;4.50;;;28.90;74.90;;;;;;4986512;28;20470;-78
2022/07/18 10:24:39;;;;;;;5.30;4.77;;;28.90;74.80;;;;;;5017889;28;20765;-78
2022/07/18 10:27:17;;;;;;;6.27;5.67;;;28.90;74.30;;;;;;4997298;28;20948;-78
2022/07/18 10:30:09;;;;;;;6.40;4.33;;;29.00;74.20;;;;;;5015014;28;20432;-78
2022/07/18 10:32:37;;;;;;;6.20;4.90;;;29.00;74.00;;;;;;5015417;28;21001;-78
2022/07/18 10:35:07;;;;;;;7.53;6.73;;;29.00;73.90;;;;;;4997873;28;20444;-78
2022/07/18 10:37:36;;;;;;;7.20;5.77;;;29.00;73.40;;;;;;4997742;28;20960;-78
2022/07/18 10:40:24;;;;;;;5.70;4.97;;;29.10;72.90;;;;;;4997995;28;20444;-78
2022/07/18 10:43:29;;;;;;;6.80;4.43;;;29.10;72.50;;;;;;4999065;28;20467;-78
2022/07/18 10:46:01;;;;;;;5.30;4.80;;;29.10;72.70;;;;;;5016053;28;20451;-78
2022/07/18 10:48:58;;;;;;;5.03;4.53;;;29.20;73.20;;;;;;4998763;28;20467;-78
2022/07/18 10:51:32;;;;;;;5.00;4.50;;;29.20;72.60;;;;;;4965706;28;20479;-78
2022/07/18 10:54:12;;;;;;;5.20;4.80;;;29.20;73.20;;;;;;4998729;28;20933;-78
2022/07/18 10:57:09;;;;;;;8.40;7.60;;;29.30;72.40;;;;;;5016439;28;20427;-78
2022/07/18 11:00:01;;;;;;;5.07;4.57;;;29.30;72.50;;;;;;5016353;28;20440;-78
2022/07/18 11:02:36;;;;;;;5.43;4.63;;;29.40;72.10;;;;;;4998609;28;20811;-78
2022/07/18 11:05:33;;;;;;;6.30;4.60;;;29.40;72.00;;;;;;5016044;28;20432;-78
2022/07/18 11:08:18;;;;;;;7.80;5.00;;;29.40;71.30;;;;;;5015806;28;20424;-78
2022/07/18 11:11:15;;;;;;;6.23;5.60;;;29.50;70.60;;;;;;4998285;28;20471;-78
2022/07/18 11:13:49;;;;;;;5.83;5.20;;;29.50;70.30;;;;;;4998107;28;20440;-78
2022/07/18 11:16:21;;;;;;;6.00;5.37;;;29.50;69.80;;;;;;5015637;28;20416;-78
2022/07/18 11:19:24;;;;;;;7.33;5.63;;;29.50;69.30;;;;;;4997626;28;20944;-77
2022/07/18 11:21:58;;;;;;;5.47;4.97;;;29.50;68.10;;;;;;4938680;29;20504;-78
2022/07/18 11:24:27;;;;;;;6.20;5.60;;;29.60;67.70;;;;;;4939032;29;20509;-77
2022/07/18 11:26:56;;;;;;;5.20;4.60;;;29.60;67.30;;;;;;4969238;28;20452;-77
2022/07/18 11:29:24;;;;;;;7.60;5.50;;;29.60;67.00;;;;;;5015108;28;21027;-78
2022/07/18 11:31:54;;;;;;;5.67;5.17;;;29.60;66.60;;;;;;5014750;28;20515;-77
2022/07/18 11:34:25;;;;;;;5.30;4.80;;;29.60;66.20;;;;;;5015050;28;20920;-77
2022/07/18 11:37:14;;;;;;;5.63;5.10;;;29.60;65.50;;;;;;4997273;28;20448;-77
2022/07/18 11:39:42;;;;;;;5.80;4.83;;;29.60;65.90;;;;;;5014848;28;20436;-77
2022/07/18 11:42:12;;;;;;;6.07;5.53;;;29.60;66.10;;;;;;5014758;28;20514;-77
2022/07/18 11:44:41;;;;;;;5.50;4.77;;;29.70;66.10;;;;;;5015366;28;20443;-77
2022/07/18 11:47:12;;;;;;;7.27;6.40;;;29.70;65.90;;;;;;4997124;28;20822;-77
2022/07/18 11:49:54;;;;;;;6.50;5.90;;;29.80;65.40;;;;;;5014953;28;20455;-77
2022/07/18 11:52:22;;;;;;;5.33;4.43;;;29.80;64.80;;;;;;5014765;28;20561;-77
2022/07/18 11:55:01;;;;;;;5.30;4.57;;;29.80;65.00;;;;;;4997293;28;20428;-77
2022/07/18 11:57:30;;;;;;;6.00;5.30;;;29.90;64.30;;;;;;4996037;28;20506;-77
2022/07/18 12:00:00;;;;;;;6.07;4.93;;;29.90;65.20;;;;;;4996762;28;20448;-77
2022/07/18 12:03:10;;;;;;;6.20;5.70;;;29.90;63.80;;;;;;5014341;28;20510;-77
2022/07/18 12:05:45;;;;;;;5.40;4.90;;;30.00;64.50;;;;;;5014792;28;20486;-77
2022/07/18 12:08:31;;;;;;;6.23;4.80;;;30.00;64.90;;;;;;5015045;28;20423;-77
2022/07/18 12:11:10;;;;;;;5.37;4.87;;;30.00;64.20;;;;;;4996493;28;20472;-77
2022/07/18 12:13:50;;;;;;;8.73;4.73;;;30.00;64.10;;;;;;5014439;28;20430;-75
2022/07/18 12:16:37;;;;;;;4.27;3.87;;;30.10;63.50;;;;;;5014129;28;20424;-76
2022/07/18 12:19:12;;;;;;;4.83;3.83;;;30.10;63.60;;;;;;5014454;28;20420;-74
2022/07/18 12:21:52;;;;;;;5.30;4.80;;;30.20;64.50;;;;;;5014051;28;20460;-75
2022/07/18 12:24:25;;;;;;;4.73;4.33;;;30.20;64.90;;;;;;5014304;28;20421;-74
2022/07/18 12:27:20;;;;;;;4.30;3.90;;;30.30;65.00;;;;;;5014291;28;20424;-75
2022/07/18 12:30:09;;;;;;;5.70;4.53;;;30.30;64.80;;;;;;4996675;28;20440;-74
2022/07/18 12:32:46;;;;;;;8.10;4.90;;;30.30;65.00;;;;;;5015109;28;20514;-75
2022/07/18 12:35:17;;;;;;;4.73;4.33;;;30.30;64.70;;;;;;4997396;28;20486;-75
2022/07/18 12:38:05;;;;;;;4.67;4.27;;;30.30;63.50;;;;;;5015611;28;20420;-75
2022/07/18 12:40:42;;;;;;;5.87;4.40;;;30.40;63.50;;;;;;5014145;28;20440;-76
2022/07/18 12:43:12;;;;;;;4.67;4.27;;;30.50;63.10;;;;;;5014502;28;20431;-76
2022/07/18 12:45:40;;;;;;;4.90;4.50;;;30.50;62.80;;;;;;5013692;28;20459;-75
2022/07/18 12:48:11;;;;;;;4.50;4.10;;;30.50;62.30;;;;;;5013642;28;20937;-75
2022/07/18 12:50:41;;;;;;;4.20;3.80;;;30.50;61.30;;;;;;5013721;28;20452;-75
2022/07/18 12:53:11;;;;;;;4.70;4.20;;;30.60;61.30;;;;;;5014043;28;20522;-75
2022/07/18 12:55:39;;;;;;;6.23;4.50;;;30.60;61.10;;;;;;4995868;28;20447;-76
2022/07/18 12:58:08;;;;;;;6.70;4.33;;;30.70;61.00;;;;;;5013670;28;20431;-77
2022/07/18 13:00:37;;;;;;;4.77;4.20;;;30.70;60.80;;;;;;5013751;28;20943;-77
2022/07/18 13:03:05;;;;;;;5.03;4.53;;;30.70;60.70;;;;;;4995953;28;20471;-76
2022/07/18 13:05:33;;;;;;;4.83;4.10;;;30.70;60.10;;;;;;4995881;28;20495;-76
2022/07/18 13:08:01;;;;;;;4.30;3.97;;;30.70;59.80;;;;;;5014399;28;20968;-76